This is the latest recevied weather packets stored in our database for station/object K1WJY. If no packets are shown the sender has not sent any weather packets the latest 10 day(s).
| Time | Temp. | Humidity | Pressure | Rain* | Wind** | Luminosity | Snow |
|---|---|---|---|---|---|---|---|
| 1788015074 | 22.22° C | 57% | 1023.3 hPa | 0 mm | - | 706 W/m² | - |
| 1788014772 | 22.22° C | 56% | 1023.1 hPa | 0 mm | - | 717 W/m² | - |
| 1788014468 | 22.22° C | 57% | 1023.4 hPa | 0 mm | - | 720 W/m² | - |
| 1788014163 | 22.22° C | 57% | 1023.1 hPa | 0 mm | - | 718 W/m² | - |
| 1788013863 | 21.67° C | 58% | 1023.2 hPa | 0 mm | - | 713 W/m² | - |
| 1788013561 | 21.67° C | 58% | 1023.1 hPa | 0 mm | - | 703 W/m² | - |
| 1788013256 | 21.67° C | 59% | 1023.3 hPa | 0 mm | - | 691 W/m² | - |
| 1788012956 | 22.22° C | 58% | 1023.1 hPa | 0 mm | - | 683 W/m² | - |
| 1788012655 | 21.11° C | 60% | 1023.3 hPa | 0 mm | - | 681 W/m² | - |
| 1788012350 | 21.11° C | 59% | 1023.3 hPa | 0 mm | - | 640 W/m² | - |
| 1788012046 | 21.67° C | 59% | 1023.3 hPa | 0 mm | - | 665 W/m² | - |
| 1788011744 | 21.67° C | 59% | 1023.5 hPa | 0 mm | - | 645 W/m² | - |
| 1788011439 | 21.11° C | 60% | 1023.4 hPa | 0 mm | - | 609 W/m² | - |
| 1788011139 | 21.67° C | 59% | 1023.3 hPa | 0 mm | - | 606 W/m² | - |
| 1788010834 | 21.67° C | 59% | 1023.5 hPa | 0 mm | - | 597 W/m² | - |
| 1788010532 | 21.67° C | 57% | 1023.3 hPa | 0 mm | - | 586 W/m² | - |
| 1788010228 | 21.11° C | 60% | 1023.5 hPa | 0 mm | - | 576 W/m² | - |
| 1788009927 | 21.11° C | 60% | 1023.3 hPa | 0 mm | - | 545 W/m² | - |
| 1788009626 | 20.56° C | 62% | 1023.5 hPa | 0 mm | - | 529 W/m² | - |
| 1788009320 | 20° C | 64% | 1023.1 hPa | 0 mm | - | 487 W/m² | - |
| 1788009015 | 20° C | 66% | 1023.3 hPa | 0 mm | - | 459 W/m² | - |
| 1788008711 | 20° C | 65% | 1023.3 hPa | 0 mm | - | 435 W/m² | - |
| 1788008409 | 20° C | 68% | 1023.2 hPa | 0 mm | - | 421 W/m² | - |
| 1788008107 | 20° C | 67% | 1023.1 hPa | 0 mm | - | 391 W/m² | - |
| 1788007806 | 19.44° C | 68% | 1023.3 hPa | 0 mm | - | 370 W/m² | - |
* Rain latest hour (hover to see other rain measurements)
** Current wind speed in m/s (hover to see current wind gust speed)